Time;durP1;ratioP1;P1;durP2;ratioP2;P2;SDS_P1;SDS_P2;PMS_P1;PMS_P2;Temp;Humidity;BMP_temperature;BMP_pressure;BME280_temperature;BME280_humidity;BME280_pressure;Samples;Min_cycle;Max_cycle;Signal;HPM_P1;HPM_P2
2023/02/18 00:00:17;;;;;;;;;;;11.80;99.90;12.10;101025.00;;;;343427;28;82497;-90
2023/02/18 00:00:29;;;;;;;;;;;11.80;99.90;12.10;101014.00;;;;342864;28;89296;-90
2023/02/18 00:00:41;;;;;;;;;;;11.80;99.90;12.10;101019.00;;;;346038;28;83461;-90
2023/02/18 00:00:52;;;;;;;;;;;11.80;99.90;12.10;101014.00;;;;344087;28;91332;-90
2023/02/18 00:01:11;;;;;;;;;;;11.80;99.90;12.20;101017.00;;;;343103;28;83581;-90
2023/02/18 00:01:23;;;;;;;;;;;11.80;99.90;12.20;101008.00;;;;341490;28;90377;-91
2023/02/18 00:01:34;;;;;;;;;;;11.80;99.90;12.30;101007.00;;;;343320;28;82474;-90
2023/02/18 00:01:46;;;;;;;;;;;11.80;99.90;12.30;101016.00;;;;344192;28;91585;-90
2023/02/18 00:01:58;;;;;;;;;;;11.80;99.90;12.40;101018.00;;;;343301;28;83427;-89
2023/02/18 00:02:10;;;;;;;;;;;11.80;99.90;12.40;101013.00;;;;342955;28;91848;-90
2023/02/18 00:02:22;;;;;;;;;;;11.80;99.90;12.50;101002.00;;;;341948;28;83432;-90
2023/02/18 00:02:34;;;;;;;;;;;11.90;99.90;12.40;101020.00;;;;342945;28;88794;-90
2023/02/18 00:02:45;;;;;;;;;;;11.90;99.90;12.40;101016.00;;;;344727;28;82232;-90
2023/02/18 00:02:57;;;;;;;;;;;11.80;99.90;12.30;101019.00;;;;344069;28;92346;-89
2023/02/18 00:03:09;;;;;;;;;;;11.90;99.90;12.30;101011.00;;;;342020;28;83130;-90
2023/02/18 00:03:21;;;;;;;;;;;11.90;99.90;12.30;101018.00;;;;345450;28;89491;-90
2023/02/18 00:03:33;;;;;;;;;;;11.90;99.90;12.20;101013.00;;;;344554;28;83560;-90
2023/02/18 00:03:44;;;;;;;;;;;11.80;99.90;12.20;101020.00;;;;341501;28;91933;-90
2023/02/18 00:03:58;;;;;;;;;;;11.90;99.90;12.20;101010.00;;;;344587;28;83321;-90
2023/02/18 00:04:09;;;;;;;;;;;11.90;99.90;12.20;101015.00;;;;342996;28;91380;-89
2023/02/18 00:04:21;;;;;;;;;;;11.80;99.90;12.30;101016.00;;;;340678;28;83336;-90
2023/02/18 00:04:33;;;;;;;;;;;11.90;99.90;12.30;101014.00;;;;344197;28;91607;-90
2023/02/18 00:04:45;;;;;;;;;;;11.80;99.90;12.30;101011.00;;;;344541;28;82575;-90
2023/02/18 00:04:57;;;;;;;;;;;11.90;99.90;12.30;101017.00;;;;341472;28;88914;-90
2023/02/18 00:05:08;;;;;;;;;;;11.90;99.90;12.30;101017.00;;;;343318;28;83433;-90
2023/02/18 00:05:20;;;;;;;;;;;11.90;99.90;12.30;101013.00;;;;344210;28;91860;-90
2023/02/18 00:05:32;;;;;;;;;;;11.90;99.90;12.20;101016.00;;;;344666;28;82563;-90
2023/02/18 00:05:44;;;;;;;;;;;11.80;99.90;12.30;101016.00;;;;345690;28;89227;-89
2023/02/18 00:05:56;;;;;;;;;;;11.90;99.90;12.30;101020.00;;;;343299;28;83515;-90
2023/02/18 00:06:14;;;;;;;;;;;11.90;99.90;12.30;101013.00;;;;344241;28;90145;-90
2023/02/18 00:06:28;;;;;;;;;;;11.90;99.90;12.30;101018.00;;;;345977;28;82529;-90
2023/02/18 00:06:40;;;;;;;;;;;11.90;99.90;12.30;101012.00;;;;342843;28;92461;-90
2023/02/18 00:06:52;;;;;;;;;;;11.90;99.90;12.30;101010.00;;;;344642;28;83158;-90
2023/02/18 00:07:04;;;;;;;;;;;11.90;99.90;12.30;101014.00;;;;342871;28;90231;-90
2023/02/18 00:07:15;;;;;;;;;;;11.90;99.90;12.20;101011.00;;;;342016;28;82507;-90
2023/02/18 00:07:27;;;;;;;;;;;11.90;99.90;12.30;101010.00;;;;342564;28;91392;-90
2023/02/18 00:07:39;;;;;;;;;;;11.90;99.90;12.30;101011.00;;;;343277;28;82500;-90
2023/02/18 00:07:51;;;;;;;;;;;11.90;99.90;12.20;101015.00;;;;342829;28;91719;-90
2023/02/18 00:08:03;;;;;;;;;;;11.90;99.90;12.20;101006.00;;;;344655;28;82623;-90
2023/02/18 00:08:14;;;;;;;;;;;11.90;99.90;12.20;101007.00;;;;342854;28;91533;-90
2023/02/18 00:08:26;;;;;;;;;;;11.90;99.90;12.10;101011.00;;;;344739;28;83349;-90
2023/02/18 00:08:38;;;;;;;;;;;11.80;99.90;12.10;101005.00;;;;342791;28;92471;-90
2023/02/18 00:08:50;;;;;;;;;;;11.90;99.90;12.10;101008.00;;;;344835;28;82421;-90
2023/02/18 00:09:03;;;;;;;;;;;11.90;99.90;12.20;101003.00;;;;342787;28;91383;-90
2023/02/18 00:09:14;;;;;;;;;;;11.90;99.90;12.20;101017.00;;;;342985;28;82398;-90
2023/02/18 00:09:26;;;;;;;;;;;11.80;99.90;12.10;101012.00;;;;344344;28;91608;-90
2023/02/18 00:09:38;;;;;;;;;;;11.80;99.90;12.10;101007.00;;;;345871;28;83536;-90
2023/02/18 00:09:50;;;;;;;;;;;11.80;99.90;12.10;101006.00;;;;345387;28;91987;-90
2023/02/18 00:10:02;;;;;;;;;;;11.80;99.90;12.20;101015.00;;;;344722;28;83408;-90
2023/02/18 00:10:14;;;;;;;;;;;11.80;99.90;12.20;101009.00;;;;345513;28;91436;-90
2023/02/18 00:10:26;;;;;;;;;;;11.80;99.90;12.20;101005.00;;;;344696;28;82543;-91
2023/02/18 00:10:40;;;;;;;;;;;11.80;99.90;12.20;101014.00;;;;342794;28;92364;-90
2023/02/18 00:10:52;;;;;;;;;;;11.80;99.90;12.20;101004.00;;;;343416;28;82549;-90
2023/02/18 00:11:05;;;;;;;;;;;11.80;99.90;12.20;101010.00;;;;341473;28;91927;-90
2023/02/18 00:11:18;;;;;;;;;;;11.80;99.90;12.30;101011.00;;;;343316;28;83495;-90
2023/02/18 00:11:32;;;;;;;;;;;11.80;99.90;12.30;101017.00;;;;342966;28;89930;-90
2023/02/18 00:11:44;;;;;;;;;;;11.80;99.90;12.30;101007.00;;;;343203;28;83506;-90
2023/02/18 00:11:56;;;;;;;;;;;11.80;99.90;12.20;101008.00;;;;344272;28;90425;-90
2023/02/18 00:12:07;;;;;;;;;;;11.80;99.90;12.20;101006.00;;;;347457;28;82568;-90
2023/02/18 00:12:19;;;;;;;;;;;11.80;99.90;12.20;101009.00;;;;342840;28;91308;-89
2023/02/18 00:12:31;;;;;;;;;;;11.80;99.90;12.30;101015.00;;;;344656;28;83477;-90
2023/02/18 00:12:43;;;;;;;;;;;11.80;99.90;12.30;101016.00;;;;344241;28;91097;-90
2023/02/18 00:12:54;;;;;;;;;;;11.80;99.90;12.30;101014.00;;;;344618;28;83473;-90
2023/02/18 00:13:06;;;;;;;;;;;11.80;99.90;12.30;101009.00;;;;342865;28;90223;-90
2023/02/18 00:13:18;;;;;;;;;;;11.80;99.90;12.30;101012.00;;;;345808;28;82281;-90
2023/02/18 00:13:30;;;;;;;;;;;11.90;99.90;12.30;101009.00;;;;344236;28;90574;-90
2023/02/18 00:13:42;;;;;;;;;;;11.90;99.90;12.20;101009.00;;;;345874;28;83406;-90
2023/02/18 00:13:55;;;;;;;;;;;11.80;99.90;12.20;101013.00;;;;344269;28;90269;-90
2023/02/18 00:14:10;;;;;;;;;;;11.80;99.90;12.20;101008.00;;;;341973;28;83387;-90
2023/02/18 00:14:22;;;;;;;;;;;11.90;99.90;12.20;100999.00;;;;344220;28;90587;-90
2023/02/18 00:14:34;;;;;;;;;;;11.90;99.90;12.20;101005.00;;;;343301;28;83557;-90
2023/02/18 00:14:45;;;;;;;;;;;11.80;99.90;12.20;101005.00;;;;345585;28;91779;-90
2023/02/18 00:14:57;;;;;;;;;;;11.80;99.90;12.20;101016.00;;;;345947;28;83278;-90
2023/02/18 00:15:10;;;;;;;;;;;11.80;99.90;12.20;101005.00;;;;344144;28;92221;-90
2023/02/18 00:15:21;;;;;;;;;;;11.80;99.90;12.20;101016.00;;;;343328;28;83420;-90
2023/02/18 00:15:34;;;;;;;;;;;11.80;99.90;12.20;101010.00;;;;342868;28;91388;-90
2023/02/18 00:15:47;;;;;;;;;;;11.80;99.90;12.20;101011.00;;;;346045;28;83490;-90
2023/02/18 00:16:03;;;;;;;;;;;11.80;99.90;12.20;101007.00;;;;345547;28;91421;-90
2023/02/18 00:16:15;;;;;;;;;;;11.80;99.90;12.20;101008.00;;;;344663;28;82531;-90
2023/02/18 00:16:27;;;;;;;;;;;11.80;99.90;12.20;101009.00;;;;344235;28;91715;-90
2023/02/18 00:16:39;;;;;;;;;;;11.80;99.90;12.20;101007.00;;;;345991;28;82317;-90
2023/02/18 00:16:51;;;;;;;;;;;11.80;99.90;12.20;101010.00;;;;344287;28;91829;-90
2023/02/18 00:17:03;;;;;;;;;;;11.80;99.90;12.20;101011.00;;;;344503;28;82518;-90
2023/02/18 00:17:14;;;;;;;;;;;11.80;99.90;12.20;101019.00;;;;345435;28;89188;-90
2023/02/18 00:17:27;;;;;;;;;;;11.80;99.90;12.20;101014.00;;;;344639;28;83445;-90
2023/02/18 00:17:39;;;;;;;;;;;11.80;99.90;12.20;101011.00;;;;345373;28;90213;-90
2023/02/18 00:17:51;;;;;;;;;;;11.80;99.90;12.20;101015.00;;;;343060;28;83521;-90
2023/02/18 00:18:03;;;;;;;;;;;11.80;99.90;12.20;101007.00;;;;345675;28;89275;-90
2023/02/18 00:18:15;;;;;;;;;;;11.80;99.90;12.20;101011.00;;;;343277;28;82581;-90
2023/02/18 00:18:26;;;;;;;;;;;11.80;99.90;12.10;101002.00;;;;341587;28;89187;-90
2023/02/18 00:18:38;;;;;;;;;;;11.80;99.90;12.10;101005.00;;;;344623;28;82543;-90
2023/02/18 00:18:53;;;;;;;;;;;11.80;99.90;12.10;101009.00;;;;344197;28;92881;-90
2023/02/18 00:19:06;;;;;;;;;;;11.80;99.90;12.10;101010.00;;;;343370;28;83457;-90
2023/02/18 00:19:18;;;;;;;;;;;11.80;99.90;12.10;101005.00;;;;344190;28;90412;-89
2023/02/18 00:19:30;;;;;;;;;;;11.80;99.90;12.10;101008.00;;;;343298;28;83284;-90
2023/02/18 00:19:42;;;;;;;;;;;11.80;99.90;12.00;101011.00;;;;341476;28;91166;-90
2023/02/18 00:19:54;;;;;;;;;;;11.80;99.90;12.00;101012.00;;;;343199;28;82665;-90
2023/02/18 00:20:06;;;;;;;;;;;11.80;99.90;12.00;101005.00;;;;344117;28;91699;-90
2023/02/18 00:20:18;;;;;;;;;;;11.80;99.90;12.00;101000.00;;;;344762;28;83449;-91
2023/02/18 00:20:32;;;;;;;;;;;11.70;99.90;12.00;101013.00;;;;344239;28;91520;-90
2023/02/18 00:20:44;;;;;;;;;;;11.80;99.90;12.00;101007.00;;;;343326;28;83368;-90
2023/02/18 00:20:56;;;;;;;;;;;11.70;99.90;12.10;101008.00;;;;344143;28;91127;-90
2023/02/18 00:21:08;;;;;;;;;;;11.80;99.90;12.10;101003.00;;;;344638;28;83449;-90
2023/02/18 00:21:19;;;;;;;;;;;11.70;99.90;12.10;101004.00;;;;345634;28;88817;-90
2023/02/18 00:21:32;;;;;;;;;;;11.80;99.90;12.10;101017.00;;;;345364;28;83477;-90
2023/02/18 00:24:03;;;;;;;;;;;11.80;99.90;11.90;101009.00;;;;227226;28;90341;-86
2023/02/18 00:24:15;;;;;;;;;;;11.70;99.90;12.00;101014.00;;;;341134;28;88745;-89
2023/02/18 00:24:27;;;;;;;;;;;11.70;99.90;12.00;101010.00;;;;340837;28;82457;-89
2023/02/18 00:24:38;;;;;;;;;;;11.70;99.90;12.00;101005.00;;;;340261;28;91164;-89
2023/02/18 00:24:50;;;;;;;;;;;11.70;99.90;12.00;101008.00;;;;339248;28;83434;-89
2023/02/18 00:25:02;;;;;;;;;;;11.70;99.90;12.00;101009.00;;;;337484;28;91729;-90
2023/02/18 00:25:14;;;;;;;;;;;11.70;99.90;12.00;101007.00;;;;339314;28;83469;-90
2023/02/18 00:25:26;;;;;;;;;;;11.70;99.90;12.00;101012.00;;;;337407;28;90611;-90
2023/02/18 00:25:38;;;;;;;;;;;11.70;99.90;12.00;101008.00;;;;339034;28;82614;-89
2023/02/18 00:26:07;;;;;;;;;;;11.70;99.90;12.00;101009.00;;;;338712;28;91378;-89
2023/02/18 00:26:19;;;;;;;;;;;11.70;99.90;12.00;101001.00;;;;341140;28;83567;-89
2023/02/18 00:26:31;;;;;;;;;;;11.70;99.90;12.00;101014.00;;;;338679;28;92529;-89
2023/02/18 00:26:43;;;;;;;;;;;11.70;99.90;12.00;101008.00;;;;338706;28;82608;-89
2023/02/18 00:26:55;;;;;;;;;;;11.70;99.90;12.00;101002.00;;;;340142;28;90194;-89
2023/02/18 00:27:07;;;;;;;;;;;11.70;99.90;12.00;101010.00;;;;336591;28;83408;-90
2023/02/18 00:27:19;;;;;;;;;;;11.70;99.90;12.00;101004.00;;;;338934;28;91450;-90
2023/02/18 00:27:30;;;;;;;;;;;11.70;99.90;12.00;101003.00;;;;340556;28;82476;-89
2023/02/18 00:27:42;;;;;;;;;;;11.70;99.90;12.00;100999.00;;;;336185;28;91634;-89
2023/02/18 00:27:54;;;;;;;;;;;11.70;99.90;12.00;101000.00;;;;335307;29;83510;-90
2023/02/18 00:28:06;;;;;;;;;;;11.70;99.90;12.00;101007.00;;;;337342;28;89993;-90
2023/02/18 00:28:18;;;;;;;;;;;11.70;99.90;12.00;101001.00;;;;337870;28;83560;-90
2023/02/18 00:28:30;;;;;;;;;;;11.70;99.90;12.00;100999.00;;;;338497;28;91342;-89
2023/02/18 00:28:41;;;;;;;;;;;11.70;99.90;12.00;101003.00;;;;337994;28;82538;-90
2023/02/18 00:28:53;;;;;;;;;;;11.70;99.90;12.00;101005.00;;;;337479;28;91600;-90
2023/02/18 00:29:05;;;;;;;;;;;11.70;99.90;12.00;100998.00;;;;337912;28;83398;-90
2023/02/18 00:29:17;;;;;;;;;;;11.70;99.90;12.00;101002.00;;;;337561;28;90793;-90
2023/02/18 00:29:29;;;;;;;;;;;11.70;99.90;12.00;101004.00;;;;339164;28;83435;-90
2023/02/18 00:29:41;;;;;;;;;;;11.70;99.90;12.10;101003.00;;;;335816;28;90856;-90
2023/02/18 00:29:53;;;;;;;;;;;11.70;99.90;12.20;100997.00;;;;335356;29;83558;-90
2023/02/18 00:30:05;;;;;;;;;;;11.70;99.90;12.20;101000.00;;;;335880;28;90122;-90
2023/02/18 00:30:17;;;;;;;;;;;11.70;99.90;12.30;100993.00;;;;336501;28;83391;-90
2023/02/18 00:30:29;;;;;;;;;;;11.70;99.90;12.30;100996.00;;;;338728;28;91533;-89
2023/02/18 00:30:43;;;;;;;;;;;11.70;99.90;12.30;101000.00;;;;337861;28;83310;-91
2023/02/18 00:30:54;;;;;;;;;;;11.80;99.90;12.30;100998.00;;;;337404;28;90189;-90
2023/02/18 00:31:07;;;;;;;;;;;11.70;99.90;12.30;100996.00;;;;337943;28;83487;-90
2023/02/18 00:31:22;;;;;;;;;;;11.70;99.90;12.20;101001.00;;;;337506;28;90676;-90
2023/02/18 00:31:35;;;;;;;;;;;11.80;99.90;12.20;100988.00;;;;334116;29;83563;-90
2023/02/18 00:31:47;;;;;;;;;;;11.80;99.90;12.10;100990.00;;;;334711;29;91452;-90
2023/02/18 00:31:59;;;;;;;;;;;11.80;99.90;12.10;100994.00;;;;335512;29;83467;-90
2023/02/18 00:32:11;;;;;;;;;;;11.80;99.90;12.10;100989.00;;;;337150;28;90567;-90
2023/02/18 00:32:23;;;;;;;;;;;11.80;99.90;12.10;100996.00;;;;338076;28;82431;-90
2023/02/18 00:32:35;;;;;;;;;;;11.80;99.90;12.10;100990.00;;;;335646;28;92380;-90
2023/02/18 00:32:46;;;;;;;;;;;11.80;99.90;12.10;100985.00;;;;337945;28;83396;-90
2023/02/18 00:32:58;;;;;;;;;;;11.80;99.90;12.10;100993.00;;;;338991;28;91378;-90
2023/02/18 00:33:10;;;;;;;;;;;11.80;99.90;12.10;100995.00;;;;336888;28;83448;-90
2023/02/18 00:33:22;;;;;;;;;;;11.80;99.90;12.10;100997.00;;;;339129;28;91780;-91
2023/02/18 00:33:34;;;;;;;;;;;11.80;99.90;12.10;100995.00;;;;338040;28;83505;-90
2023/02/18 00:33:45;;;;;;;;;;;11.80;99.90;12.10;100990.00;;;;338991;28;90457;-90
2023/02/18 00:33:57;;;;;;;;;;;11.80;99.90;12.10;100995.00;;;;338015;28;83420;-90
2023/02/18 00:34:10;;;;;;;;;;;11.80;99.90;12.10;100990.00;;;;336206;28;90584;-90
2023/02/18 00:34:22;;;;;;;;;;;11.80;99.90;12.10;100986.00;;;;339333;28;83473;-90
2023/02/18 00:34:33;;;;;;;;;;;11.80;99.90;12.10;100992.00;;;;336005;28;92556;-90
2023/02/18 00:34:45;;;;;;;;;;;11.80;99.90;12.10;100988.00;;;;336787;28;82585;-90
2023/02/18 00:34:57;;;;;;;;;;;11.80;99.90;12.10;100993.00;;;;336370;28;89321;-90
2023/02/18 00:35:09;;;;;;;;;;;11.80;99.90;12.10;100984.00;;;;337383;28;83492;-90
2023/02/18 00:35:21;;;;;;;;;;;11.80;99.90;12.10;100982.00;;;;336244;28;91329;-91
2023/02/18 00:35:32;;;;;;;;;;;11.80;99.90;12.10;100984.00;;;;337893;28;83533;-90
2023/02/18 00:35:44;;;;;;;;;;;11.80;99.90;12.20;100993.00;;;;338857;28;92157;-90
2023/02/18 00:36:03;;;;;;;;;;;11.80;99.90;12.10;100980.00;;;;337978;28;83397;-90
2023/02/18 00:36:17;;;;;;;;;;;11.80;99.90;12.10;100995.00;;;;337472;28;91803;-90
2023/02/18 00:36:29;;;;;;;;;;;11.80;99.90;12.10;100993.00;;;;340637;28;82540;-90
2023/02/18 00:36:41;;;;;;;;;;;11.80;99.90;12.20;100990.00;;;;337444;28;92335;-90
2023/02/18 00:36:53;;;;;;;;;;;11.80;99.90;12.10;100989.00;;;;339221;28;82519;-90
2023/02/18 00:37:04;;;;;;;;;;;11.80;99.90;12.10;100983.00;;;;340144;28;91723;-90
2023/02/18 00:37:16;;;;;;;;;;;11.80;99.90;12.10;100986.00;;;;338041;28;83277;-90
2023/02/18 00:37:28;;;;;;;;;;;11.80;99.90;12.10;100991.00;;;;337518;28;90271;-89
2023/02/18 00:37:40;;;;;;;;;;;11.80;99.90;12.10;100987.00;;;;337928;28;83473;-90
2023/02/18 00:37:52;;;;;;;;;;;11.80;99.90;12.10;100989.00;;;;338858;28;91615;-90
2023/02/18 00:38:03;;;;;;;;;;;11.80;99.90;12.10;100988.00;;;;339260;28;83378;-90
2023/02/18 00:38:15;;;;;;;;;;;11.80;99.90;12.10;100990.00;;;;337530;28;89891;-91
2023/02/18 00:38:27;;;;;;;;;;;11.80;99.90;12.20;100992.00;;;;337926;28;82511;-90
2023/02/18 00:38:42;;;;;;;;;;;11.80;99.90;12.10;100987.00;;;;336275;28;91554;-89
2023/02/18 00:38:56;;;;;;;;;;;11.80;99.90;12.10;100984.00;;;;336384;28;83258;-90
2023/02/18 00:39:08;;;;;;;;;;;11.80;99.90;12.20;100994.00;;;;336105;28;90156;-90
2023/02/18 00:39:20;;;;;;;;;;;11.80;99.90;12.20;100991.00;;;;339319;28;82511;-90
2023/02/18 00:39:32;;;;;;;;;;;11.80;99.90;12.20;100990.00;;;;336267;28;90572;-90
2023/02/18 00:39:44;;;;;;;;;;;11.80;99.90;12.20;100987.00;;;;337890;28;83522;-90
2023/02/18 00:39:56;;;;;;;;;;;11.80;99.90;12.20;100980.00;;;;339059;28;87953;-90
2023/02/18 00:40:07;;;;;;;;;;;11.80;99.90;12.20;100989.00;;;;337893;28;83413;-90
2023/02/18 00:40:19;;;;;;;;;;;11.80;99.90;12.10;100991.00;;;;338688;28;90220;-90
2023/02/18 00:40:31;;;;;;;;;;;11.80;99.90;12.10;100980.00;;;;339218;28;82533;-90
2023/02/18 00:40:43;;;;;;;;;;;11.80;99.90;12.10;100985.00;;;;337591;28;91314;-89
2023/02/18 00:40:55;;;;;;;;;;;11.80;99.90;12.20;100990.00;;;;340794;28;82585;-89
2023/02/18 00:41:07;;;;;;;;;;;11.80;99.90;12.10;100983.00;;;;340480;28;90401;-90
2023/02/18 00:41:19;;;;;;;;;;;11.80;99.90;12.10;100988.00;;;;340717;28;82579;-93
2023/02/18 00:41:31;;;;;;;;;;;11.80;99.90;12.10;100987.00;;;;339106;28;90142;-91
2023/02/18 00:41:42;;;;;;;;;;;11.80;99.90;12.10;100994.00;;;;340527;28;82551;-89
2023/02/18 00:41:54;;;;;;;;;;;11.80;99.90;12.10;100988.00;;;;336354;29;90240;-90
2023/02/18 00:42:06;;;;;;;;;;;11.80;99.90;12.10;100989.00;;;;338145;28;82548;-89
2023/02/18 00:42:18;;;;;;;;;;;11.80;99.90;12.10;100987.00;;;;340341;28;92041;-88
2023/02/18 00:42:30;;;;;;;;;;;11.80;99.90;12.10;100993.00;;;;340925;28;82491;-89
2023/02/18 00:42:41;;;;;;;;;;;11.80;99.90;12.10;100991.00;;;;340360;28;91456;-90
2023/02/18 00:42:53;;;;;;;;;;;11.80;99.90;12.10;100985.00;;;;339376;28;82530;-90
2023/02/18 00:43:05;;;;;;;;;;;11.80;99.90;12.10;100990.00;;;;338932;28;88127;-88
2023/02/18 00:43:17;;;;;;;;;;;11.80;99.90;12.10;100985.00;;;;339502;28;82505;-90
2023/02/18 00:43:28;;;;;;;;;;;11.80;99.90;12.10;100987.00;;;;337670;28;90197;-90
2023/02/18 00:43:40;;;;;;;;;;;11.80;99.90;12.10;100990.00;;;;336609;29;82581;-89
2023/02/18 00:43:52;;;;;;;;;;;11.80;99.90;12.10;100989.00;;;;337229;28;90619;-92
2023/02/18 00:44:04;;;;;;;;;;;11.80;99.90;12.10;100984.00;;;;334451;29;83414;-90
2023/02/18 00:44:16;;;;;;;;;;;11.80;99.90;12.10;100988.00;;;;334872;29;91379;-90
2023/02/18 00:44:28;;;;;;;;;;;11.80;99.90;12.20;100986.00;;;;336701;28;83445;-90
2023/02/18 00:44:40;;;;;;;;;;;11.80;99.90;12.20;100988.00;;;;337548;28;92774;-90
2023/02/18 00:44:52;;;;;;;;;;;11.80;99.90;12.20;100988.00;;;;336602;28;82558;-91
2023/02/18 00:45:04;;;;;;;;;;;11.80;99.90;12.20;100989.00;;;;337356;28;90796;-90
2023/02/18 00:45:16;;;;;;;;;;;11.80;99.90;12.20;100984.00;;;;334140;29;82526;-91
2023/02/18 00:45:27;;;;;;;;;;;11.80;99.90;12.20;100981.00;;;;337629;28;89886;-90
2023/02/18 00:45:39;;;;;;;;;;;11.80;99.90;12.10;100987.00;;;;339259;28;83469;-90
2023/02/18 00:45:51;;;;;;;;;;;11.80;99.90;12.20;100988.00;;;;336221;28;91785;-90
2023/02/18 00:46:03;;;;;;;;;;;11.80;99.90;12.20;100984.00;;;;339384;28;83377;-90
2023/02/18 00:46:16;;;;;;;;;;;11.80;99.90;12.30;100993.00;;;;338802;28;91428;-90
2023/02/18 00:46:28;;;;;;;;;;;11.80;99.90;12.20;101000.00;;;;340693;28;82488;-90
2023/02/18 00:46:40;;;;;;;;;;;11.80;99.90;12.20;100980.00;;;;338949;28;90174;-90
2023/02/18 00:46:52;;;;;;;;;;;11.80;99.90;12.30;100992.00;;;;337926;28;84217;-90
2023/02/18 00:47:04;;;;;;;;;;;11.80;99.90;12.30;100990.00;;;;340252;28;91409;-90
2023/02/18 00:47:15;;;;;;;;;;;11.80;99.90;12.30;100988.00;;;;336590;28;83319;-90
2023/02/18 00:47:27;;;;;;;;;;;11.80;99.90;12.20;100994.00;;;;338862;28;90832;-90
2023/02/18 00:47:39;;;;;;;;;;;11.80;99.90;12.20;100988.00;;;;339324;28;83275;-90
2023/02/18 00:47:51;;;;;;;;;;;11.80;99.90;12.20;100989.00;;;;337636;28;91307;-90
2023/02/18 00:48:02;;;;;;;;;;;11.80;99.90;12.10;100990.00;;;;338185;28;83348;-90
2023/02/18 00:48:14;;;;;;;;;;;11.80;99.90;12.10;100982.00;;;;336305;28;90236;-90
2023/02/18 00:48:26;;;;;;;;;;;11.80;99.90;12.10;100993.00;;;;339334;28;82627;-90
2023/02/18 00:48:38;;;;;;;;;;;11.80;99.90;12.10;100984.00;;;;337477;28;92226;-90
2023/02/18 00:48:50;;;;;;;;;;;11.80;99.90;12.10;100979.00;;;;336536;28;82482;-90
2023/02/18 00:49:02;;;;;;;;;;;11.80;99.90;12.10;100990.00;;;;338873;28;91480;-90
2023/02/18 00:49:14;;;;;;;;;;;11.80;99.90;12.20;100985.00;;;;339334;28;82545;-90
2023/02/18 00:49:26;;;;;;;;;;;11.80;99.90;12.10;100990.00;;;;340123;28;91589;-89
2023/02/18 00:49:38;;;;;;;;;;;11.80;99.90;12.10;100992.00;;;;337961;28;83709;-90
2023/02/18 00:49:50;;;;;;;;;;;11.80;99.90;12.10;100985.00;;;;333268;29;91458;-89
2023/02/18 00:50:01;;;;;;;;;;;11.80;99.90;12.10;100985.00;;;;338076;28;82481;-91
2023/02/18 00:50:13;;;;;;;;;;;11.80;99.90;12.20;100985.00;;;;338800;28;90478;-90
2023/02/18 00:50:25;;;;;;;;;;;11.80;99.90;12.20;100988.00;;;;336587;28;83365;-90
2023/02/18 00:50:37;;;;;;;;;;;11.80;99.90;12.20;100984.00;;;;334852;29;90902;-90
2023/02/18 00:50:49;;;;;;;;;;;11.80;99.90;12.20;100985.00;;;;337930;28;83327;-90
2023/02/18 00:51:02;;;;;;;;;;;11.80;99.90;12.10;100988.00;;;;337563;28;91376;-89
2023/02/18 00:51:13;;;;;;;;;;;11.80;99.90;12.10;100987.00;;;;338477;28;83494;-90
2023/02/18 00:51:25;;;;;;;;;;;11.80;99.90;12.10;100984.00;;;;336119;28;89915;-90
2023/02/18 00:51:37;;;;;;;;;;;11.80;99.90;12.00;100989.00;;;;337909;28;83427;-90
2023/02/18 00:51:49;;;;;;;;;;;11.80;99.90;12.00;100980.00;;;;340233;28;88487;-90
2023/02/18 00:52:01;;;;;;;;;;;11.80;99.90;12.00;100987.00;;;;337918;28;83493;-90
2023/02/18 00:52:13;;;;;;;;;;;11.80;99.90;12.00;100991.00;;;;334855;29;90788;-90
2023/02/18 00:52:24;;;;;;;;;;;11.80;99.90;12.00;100986.00;;;;337957;28;82512;-90
2023/02/18 00:52:36;;;;;;;;;;;11.80;99.90;12.00;100987.00;;;;337395;28;93016;-90
2023/02/18 00:52:48;;;;;;;;;;;11.70;99.90;12.00;100990.00;;;;339287;28;83406;-90
2023/02/18 00:53:00;;;;;;;;;;;11.70;99.90;12.00;100988.00;;;;338771;28;92045;-90
2023/02/18 00:53:12;;;;;;;;;;;11.70;99.90;12.00;100982.00;;;;339227;28;83361;-90
2023/02/18 00:53:24;;;;;;;;;;;11.70;99.90;12.00;100990.00;;;;338860;28;90303;-90
2023/02/18 00:53:36;;;;;;;;;;;11.70;99.90;12.00;100989.00;;;;337918;28;83469;-90
2023/02/18 00:53:48;;;;;;;;;;;11.70;99.90;12.00;100985.00;;;;337402;28;90801;-90
2023/02/18 00:54:00;;;;;;;;;;;11.70;99.90;12.00;100992.00;;;;339072;28;83480;-90
2023/02/18 00:54:11;;;;;;;;;;;11.70;99.90;12.00;100989.00;;;;340099;28;91384;-90
2023/02/18 00:54:23;;;;;;;;;;;11.70;99.90;12.00;100985.00;;;;339224;28;83528;-90
2023/02/18 00:54:35;;;;;;;;;;;11.70;99.90;12.10;100993.00;;;;337466;28;92639;-90
2023/02/18 00:54:47;;;;;;;;;;;11.70;99.90;12.10;100982.00;;;;339229;28;82633;-90
2023/02/18 00:54:59;;;;;;;;;;;11.70;99.90;12.10;100996.00;;;;338863;28;89790;-90
2023/02/18 00:55:10;;;;;;;;;;;11.70;99.90;12.10;100995.00;;;;336589;28;83573;-90
2023/02/18 00:55:22;;;;;;;;;;;11.70;99.90;12.00;100990.00;;;;338801;28;91727;-90
2023/02/18 00:55:39;;;;;;;;;;;11.70;99.90;12.00;100993.00;;;;339220;28;84061;-90
2023/02/18 00:55:50;;;;;;;;;;;11.70;99.90;12.00;100990.00;;;;338788;28;91538;-90
2023/02/18 00:56:03;;;;;;;;;;;11.70;99.90;12.00;100985.00;;;;337709;28;83284;-90
2023/02/18 00:56:14;;;;;;;;;;;11.70;99.90;12.00;100988.00;;;;337407;28;90191;-90
2023/02/18 00:56:26;;;;;;;;;;;11.70;99.90;12.00;100987.00;;;;339238;28;83422;-90
2023/02/18 00:56:38;;;;;;;;;;;11.70;99.90;12.00;100984.00;;;;336005;28;91390;-90
2023/02/18 00:56:50;;;;;;;;;;;11.70;99.90;12.10;100990.00;;;;337890;28;82602;-90
2023/02/18 00:57:01;;;;;;;;;;;11.70;99.90;12.10;100986.00;;;;338924;28;89889;-90
2023/02/18 00:57:13;;;;;;;;;;;11.70;99.90;12.10;100982.00;;;;337905;28;83433;-90
2023/02/18 00:57:25;;;;;;;;;;;11.70;99.90;12.20;100988.00;;;;337560;28;90913;-90
2023/02/18 00:57:37;;;;;;;;;;;11.70;99.90;12.20;100985.00;;;;336450;28;83462;-90
2023/02/18 00:57:48;;;;;;;;;;;11.70;99.90;12.20;100985.00;;;;336209;28;91325;-90
2023/02/18 00:58:00;;;;;;;;;;;11.70;99.90;12.20;100983.00;;;;337963;28;83433;-90
2023/02/18 00:58:12;;;;;;;;;;;11.80;99.90;12.20;100981.00;;;;338813;28;91251;-90
2023/02/18 00:58:24;;;;;;;;;;;11.80;99.90;12.20;100980.00;;;;337929;28;82501;-90
2023/02/18 00:58:36;;;;;;;;;;;11.80;99.90;12.20;100984.00;;;;337458;28;92391;-90
2023/02/18 00:58:48;;;;;;;;;;;11.80;99.90;12.20;100984.00;;;;340558;28;83574;-90
2023/02/18 00:59:00;;;;;;;;;;;11.80;99.90;12.20;100976.00;;;;340000;28;92052;-90
2023/02/18 00:59:12;;;;;;;;;;;11.80;99.90;12.20;100979.00;;;;339220;28;83391;-90
2023/02/18 00:59:24;;;;;;;;;;;11.80;99.90;12.20;100973.00;;;;340184;28;92054;-90
2023/02/18 00:59:36;;;;;;;;;;;11.80;99.90;12.20;100981.00;;;;340612;28;82535;-90
2023/02/18 00:59:48;;;;;;;;;;;11.80;99.90;12.20;100985.00;;;;340142;28;90494;-90
2023/02/18 01:00:00;;;;;;;;;;;11.80;99.90;12.20;100975.00;;;;338977;28;83419;-90
2023/02/18 01:00:12;;;;;;;;;;;11.80;99.90;12.20;100979.00;;;;338722;28;91809;-90
2023/02/18 01:00:24;;;;;;;;;;;11.80;99.90;12.20;100983.00;;;;340651;28;82509;-90
2023/02/18 01:00:36;;;;;;;;;;;11.80;99.90;12.20;100993.00;;;;338755;28;92518;-90
2023/02/18 01:00:48;;;;;;;;;;;11.80;99.90;12.30;100982.00;;;;337957;28;83519;-90
2023/02/18 01:01:00;;;;;;;;;;;11.80;99.90;12.30;100989.00;;;;340114;28;91678;-90
2023/02/18 01:01:12;;;;;;;;;;;11.80;99.90;12.20;100987.00;;;;340526;28;83319;-90
2023/02/18 01:01:23;;;;;;;;;;;11.80;99.90;12.30;100985.00;;;;340189;28;91729;-90
2023/02/18 01:01:35;;;;;;;;;;;11.80;99.90;12.40;100982.00;;;;340537;28;83506;-90
2023/02/18 01:01:47;;;;;;;;;;;11.80;99.90;12.30;100981.00;;;;338522;28;90589;-90